Strona główna
METAR-TAF:

METAR-TAF

Lotnisko :

Port lotniczy Bangkok-Don Muang

Bangkok, Tajlandia

Szerokość geograficzna: 13-54-45N, Długość geograficzna: 100-36-24E, wysokość: 4 m

Aktualna obserwacja pogody

Raport powstał 21 minut temu, godzina 18:00 UTC
Cisza
Temperatura 25°C
Wilgotność 74%
Ciśnienie 1014 hPa
Widzialność: 9000 m
Mało chmury na wysokości 3000 ft

METAR: VTBD 231800Z 00000KT 9000 FEW030 25/20 Q1014 NOSIG

czas: 01:21 (18:21 UTC)

Prognoza

Raport powstał 1 godzina i 21 minut temu, godzina 17:00 UTC
Prognoza ważna od 23 godzina 18 UTC do 24 godzina 24 UTC
Wiatr kt od północ
Widzialność: 8000 m
Mało chmury na wysokości 3000 ft
Stopniowe zmiany
od 24 godzina 01 UTC do 24 godzina 03 UTC
Wiatr 8 kt od wschód
Widzialność 10 km lub więcej
Stopniowe zmiany
od 24 godzina 10 UTC do 24 godzina 12 UTC
Wiatr 5 kt od północny wschód
Widzialność: 8000 m

TAF: VTBD 231700Z 2318/2424 00000KT 8000 FEW030 BECMG 2401/2403 10008KT 9999 BECMG 2410/2412 04005KT 8000

Obserwacja i prognoza pogody dla ponad 4000 lotnisk (raport METAR i TAF).

Dostępne stacje oznaczono żółtymi i czerwonymi punktami na mapie.

Najedź kursorem aby zobaczyć nazwę stacji.

Kliknij aby zobaczyć obserwacje i prognozy pogody.

Aby zmienić mapę: kliknij na zielony przycisk z czarnym krzyżykiem, aby powiększyć; na zielony przycisk z myślnikiem, aby pomniejszyć; na zielone strzałki, aby przejść do map sąsiednich.


METAR-TAF: